Time;durP1;ratioP1;P1;durP2;ratioP2;P2;SDS_P1;SDS_P2;PMS_P1;PMS_P2;Temp;Humidity;BMP_temperature;BMP_pressure;BME280_temperature;BME280_humidity;BME280_pressure;Samples;Min_cycle;Max_cycle;Signal;HPM_P1;HPM_P2
2024/03/05 00:00:12;;;;;;;42.92;16.73;;;10.40;99.90;;;;;;5024192;28;20026;-86
2024/03/05 00:02:42;;;;;;;39.17;15.38;;;10.40;99.90;;;;;;5028826;28;20080;-86
2024/03/05 00:05:08;;;;;;;;;;;10.40;99.90;;;;;;5028653;28;20030;-86
2024/03/05 00:07:35;;;;;;;39.17;15.23;;;10.40;99.90;;;;;;5024864;28;19955;-87
2024/03/05 00:10:02;;;;;;;46.85;16.70;;;10.40;99.90;;;;;;5023329;28;20113;-86
2024/03/05 00:12:28;;;;;;;44.75;15.82;;;10.40;99.90;;;;;;5021503;28;20080;-87
2024/03/05 00:14:55;;;;;;;41.50;15.63;;;10.40;99.90;;;;;;5021041;28;20400;-87
2024/03/05 00:17:22;;;;;;;45.63;15.90;;;10.40;99.90;;;;;;5027283;28;20025;-87
2024/03/05 00:19:47;;;;;;;44.05;15.90;;;10.40;99.90;;;;;;5022714;28;20017;-87
2024/03/05 00:22:13;;;;;;;44.65;15.70;;;10.40;99.90;;;;;;5018934;28;20048;-88
2024/03/05 00:24:38;;;;;;;41.50;15.23;;;10.40;99.90;;;;;;5028156;28;20033;-86
2024/03/05 00:27:04;;;;;;;42.38;15.50;;;10.40;99.90;;;;;;5029799;28;20109;-88
2024/03/05 00:29:29;;;;;;;47.28;16.13;;;10.40;99.90;;;;;;5026836;28;20105;-87
2024/03/05 00:31:55;;;;;;;45.45;15.77;;;10.40;99.90;;;;;;5025853;28;20064;-87
2024/03/05 00:34:20;;;;;;;42.55;14.68;;;10.40;99.90;;;;;;5029092;28;20064;-87
2024/03/05 00:36:46;;;;;;;35.67;14.13;;;10.30;99.90;;;;;;5027879;28;20441;-87
2024/03/05 00:39:12;;;;;;;46.05;15.52;;;10.40;99.90;;;;;;5028338;28;20029;-87
2024/03/05 00:41:38;;;;;;;43.00;15.57;;;10.40;99.90;;;;;;5023997;28;20172;-86
2024/03/05 00:44:04;;;;;;;38.42;15.35;;;10.40;99.90;;;;;;5026436;28;20121;-87
2024/03/05 00:46:30;;;;;;;41.05;14.82;;;10.40;99.90;;;;;;5028324;28;20028;-85
2024/03/05 00:48:55;;;;;;;48.50;17.55;;;10.40;99.90;;;;;;5025019;28;20026;-87
2024/03/05 00:51:21;;;;;;;40.28;15.15;;;10.30;99.90;;;;;;5021081;28;20108;-86
2024/03/05 00:53:47;;;;;;;41.50;15.93;;;10.30;99.90;;;;;;5024099;28;20404;-88
2024/03/05 00:56:12;;;;;;;45.35;16.38;;;10.40;99.90;;;;;;5025293;28;20400;-88
2024/03/05 00:58:38;;;;;;;38.42;16.02;;;10.30;99.90;;;;;;5027670;28;20105;-87
2024/03/05 01:01:04;;;;;;;49.40;16.63;;;10.40;99.90;;;;;;5023554;28;20026;-87
2024/03/05 01:03:29;;;;;;;52.55;17.05;;;10.30;99.90;;;;;;5026573;28;20480;-87
2024/03/05 01:05:55;;;;;;;42.95;15.93;;;10.40;99.90;;;;;;5027174;28;20032;-86
2024/03/05 01:08:21;;;;;;;44.33;17.80;;;10.40;99.90;;;;;;5027886;28;20670;-88
2024/03/05 01:10:47;;;;;;;47.88;17.00;;;10.40;99.90;;;;;;5020744;28;20476;-87
2024/03/05 01:13:12;;;;;;;38.50;14.80;;;10.30;99.90;;;;;;5026855;28;20033;-88
2024/03/05 01:15:38;;;;;;;50.38;15.55;;;10.30;99.90;;;;;;5026721;28;20492;-87
2024/03/05 01:18:04;;;;;;;43.08;15.05;;;10.40;99.90;;;;;;5023285;28;20033;-87
2024/03/05 01:20:29;;;;;;;40.70;15.77;;;10.30;99.90;;;;;;5025468;28;20021;-87
2024/03/05 01:22:55;;;;;;;45.97;16.77;;;10.30;99.90;;;;;;5022822;28;20488;-88
2024/03/05 01:25:21;;;;;;;41.33;16.00;;;10.30;99.90;;;;;;5028505;28;20408;-87
2024/03/05 01:27:46;;;;;;;48.08;16.50;;;10.30;99.90;;;;;;5027509;28;20083;-87
2024/03/05 01:30:13;;;;;;;42.90;16.45;;;10.30;99.90;;;;;;5026527;28;20026;-87
2024/03/05 01:32:43;;;;;;;45.15;16.60;;;10.30;99.90;;;;;;5027335;28;20026;-88
2024/03/05 01:35:11;;;;;;;50.03;16.80;;;10.30;99.90;;;;;;5031042;28;20105;-86
2024/03/05 01:37:37;;;;;;;39.67;15.35;;;10.30;99.90;;;;;;5029984;28;20578;-87
2024/03/05 01:40:04;;;;;;;51.47;18.08;;;10.40;99.90;;;;;;5023749;28;20064;-87
2024/03/05 01:42:30;;;;;;;41.85;15.88;;;10.30;99.90;;;;;;5031982;28;20555;-86
2024/03/05 01:44:56;;;;;;;46.20;16.95;;;10.30;99.90;;;;;;5023745;28;20504;-86
2024/03/05 01:47:21;;;;;;;43.90;15.27;;;10.30;99.90;;;;;;5031062;28;20053;-85
2024/03/05 01:49:48;;;;;;;41.72;15.57;;;10.30;99.90;;;;;;5026977;28;20018;-88
2024/03/05 01:52:14;;;;;;;46.03;15.55;;;10.40;99.90;;;;;;5025955;28;20022;-87
2024/03/05 01:54:40;;;;;;;44.55;15.35;;;10.30;99.90;;;;;;5026335;28;20380;-88
2024/03/05 01:57:07;;;;;;;47.17;16.92;;;10.30;99.90;;;;;;5028982;28;20037;-87
2024/03/05 01:59:33;;;;;;;41.20;15.23;;;10.30;99.90;;;;;;5026154;28;20017;-87
2024/03/05 02:01:59;;;;;;;41.88;14.88;;;10.30;99.90;;;;;;5024000;28;20030;-87
2024/03/05 02:04:26;;;;;;;52.42;16.83;;;10.30;99.90;;;;;;5030258;28;20034;-87
2024/03/05 02:06:53;;;;;;;42.70;16.70;;;10.30;99.90;;;;;;5030340;28;20029;-86
2024/03/05 02:09:21;;;;;;;43.58;16.63;;;10.30;99.90;;;;;;5021033;28;20052;-86
2024/03/05 02:11:47;;;;;;;42.03;15.63;;;10.30;99.90;;;;;;5025474;28;20025;-88
2024/03/05 02:14:13;;;;;;;47.42;16.92;;;10.30;99.90;;;;;;5030722;28;20022;-88
2024/03/05 02:16:40;;;;;;;37.67;15.57;;;10.30;99.90;;;;;;5025660;28;20026;-87
2024/03/05 02:19:07;;;;;;;41.47;15.40;;;10.30;99.90;;;;;;5028304;28;20017;-88
2024/03/05 02:21:33;;;;;;;46.00;16.17;;;10.30;99.90;;;;;;5028733;28;20028;-87
2024/03/05 02:23:58;;;;;;;43.55;14.90;;;10.30;99.90;;;;;;5029708;28;20022;-87
2024/03/05 02:26:25;;;;;;;44.47;15.05;;;10.40;99.90;;;;;;5030395;28;20671;-87
2024/03/05 02:28:53;;;;;;;43.25;15.57;;;10.30;99.90;;;;;;5029381;28;20021;-87
2024/03/05 02:31:19;;;;;;;40.63;14.93;;;10.40;99.90;;;;;;5029951;28;20037;-87
2024/03/05 02:33:47;;;;;;;43.38;15.73;;;10.30;99.90;;;;;;5026411;28;20068;-87
2024/03/05 02:36:12;;;;;;;42.38;15.32;;;10.30;99.90;;;;;;5027104;28;20108;-88
2024/03/05 02:38:38;;;;;;;35.72;13.90;;;10.30;99.90;;;;;;5021012;28;20109;-86
2024/03/05 02:41:04;;;;;;;39.30;15.75;;;10.30;99.90;;;;;;5020103;28;20018;-87
2024/03/05 02:43:30;;;;;;;43.63;15.70;;;10.30;99.90;;;;;;5030459;28;20036;-87
2024/03/05 02:45:56;;;;;;;38.83;13.82;;;10.30;99.90;;;;;;5029098;28;20030;-87
2024/03/05 02:48:22;;;;;;;40.67;14.18;;;10.30;99.90;;;;;;5023705;28;20178;-87
2024/03/05 02:50:48;;;;;;;38.33;15.15;;;10.30;99.90;;;;;;5020013;28;20121;-88
2024/03/05 02:53:14;;;;;;;42.33;15.18;;;10.30;99.90;;;;;;5027589;28;20172;-87
2024/03/05 02:55:41;;;;;;;41.47;15.45;;;10.30;99.90;;;;;;5028481;28;20025;-86
2024/03/05 02:58:07;;;;;;;37.28;15.43;;;10.30;99.90;;;;;;5023559;28;20402;-87
2024/03/05 03:00:33;;;;;;;48.47;15.40;;;10.30;99.90;;;;;;5027148;28;20025;-87
2024/03/05 03:02:59;;;;;;;35.90;14.73;;;10.30;99.90;;;;;;5030087;28;20518;-87
2024/03/05 03:05:25;;;;;;;35.85;13.90;;;10.30;99.90;;;;;;5024086;28;20021;-87
2024/03/05 03:07:51;;;;;;;41.55;15.85;;;10.30;99.90;;;;;;5022959;28;20511;-87
2024/03/05 03:10:17;;;;;;;44.25;16.80;;;10.30;99.90;;;;;;5023630;28;20018;-86
2024/03/05 03:12:47;;;;;;;37.97;14.23;;;10.30;99.90;;;;;;5030166;28;20017;-87
2024/03/05 03:15:13;;;;;;;40.70;15.90;;;10.30;99.90;;;;;;5024294;28;20097;-87
2024/03/05 03:17:40;;;;;;;38.58;15.32;;;10.30;99.90;;;;;;5029454;28;20119;-87
2024/03/05 03:20:07;;;;;;;42.65;15.15;;;10.40;99.90;;;;;;5024883;28;20475;-88
2024/03/05 03:22:34;;;;;;;42.40;16.27;;;10.30;99.90;;;;;;5029248;28;20029;-87
2024/03/05 03:24:59;;;;;;;43.72;15.32;;;10.30;99.90;;;;;;5028500;28;20109;-87
2024/03/05 03:27:25;;;;;;;43.53;16.80;;;10.30;99.90;;;;;;5030197;28;20639;-88
2024/03/05 03:29:51;;;;;;;47.50;16.00;;;10.30;99.90;;;;;;5030644;28;20463;-87
2024/03/05 03:32:19;;;;;;;40.97;14.65;;;10.30;99.90;;;;;;5026017;28;20476;-85
2024/03/05 03:34:45;;;;;;;33.90;13.18;;;10.30;99.90;;;;;;5024304;28;20073;-87
2024/03/05 03:37:12;;;;;;;42.97;15.50;;;10.30;99.90;;;;;;5025637;28;20017;-86
2024/03/05 03:39:42;;;;;;;42.35;14.80;;;10.30;99.90;;;;;;5029196;28;20377;-87
2024/03/05 03:42:10;;;;;;;42.25;15.98;;;10.30;99.90;;;;;;5025531;28;20033;-88
2024/03/05 03:44:36;;;;;;;43.28;14.88;;;10.30;99.90;;;;;;5028467;28;20053;-87
2024/03/05 03:47:02;;;;;;;49.03;16.27;;;10.40;99.90;;;;;;5027239;28;20064;-87
2024/03/05 03:49:27;;;;;;;40.47;14.90;;;10.30;99.90;;;;;;5026702;28;20042;-87
2024/03/05 03:51:53;;;;;;;41.33;14.43;;;10.30;99.90;;;;;;5028236;28;20075;-87
2024/03/05 03:54:19;;;;;;;41.50;15.38;;;10.30;99.90;;;;;;5024694;28;20026;-87
2024/03/05 03:56:45;;;;;;;45.75;16.35;;;10.40;99.90;;;;;;5023611;28;20017;-87
2024/03/05 03:59:11;;;;;;;42.85;15.07;;;10.30;99.90;;;;;;5029674;28;20024;-88
2024/03/05 04:01:37;;;;;;;43.85;15.90;;;10.30;99.90;;;;;;5023828;28;20018;-87
2024/03/05 04:04:03;;;;;;;40.05;15.05;;;10.30;99.90;;;;;;5022931;28;20028;-87
2024/03/05 04:06:30;;;;;;;38.38;15.70;;;10.30;99.90;;;;;;5029489;28;20103;-88
2024/03/05 04:08:55;;;;;;;43.85;16.17;;;10.30;99.90;;;;;;5028890;28;20634;-87
2024/03/05 04:11:24;;;;;;;46.80;16.60;;;10.30;99.90;;;;;;5027496;28;20120;-86
2024/03/05 04:13:49;;;;;;;50.30;15.93;;;10.30;99.90;;;;;;5029135;28;20029;-87
2024/03/05 04:16:15;;;;;;;42.33;15.55;;;10.30;99.90;;;;;;5029081;28;20021;-87
2024/03/05 04:18:41;;;;;;;48.97;17.67;;;10.30;99.90;;;;;;5028204;28;20032;-88
2024/03/05 04:21:06;;;;;;;44.15;15.05;;;10.30;99.90;;;;;;5028784;28;20472;-86
2024/03/05 04:23:33;;;;;;;47.33;16.65;;;10.30;99.90;;;;;;5022320;28;20056;-88
2024/03/05 04:26:01;;;;;;;39.17;15.25;;;10.30;99.90;;;;;;5026750;28;20034;-86
2024/03/05 04:28:35;;;;;;;39.65;15.35;;;10.30;99.90;;;;;;5028575;28;20030;-88
2024/03/05 04:31:08;;;;;;;42.17;14.95;;;10.30;99.90;;;;;;5025821;28;20021;-87
2024/03/05 04:33:36;;;;;;;43.20;14.82;;;10.30;99.90;;;;;;5021854;28;20476;-87
2024/03/05 04:36:06;;;;;;;46.45;15.65;;;10.30;99.90;;;;;;5026403;28;20030;-86
2024/03/05 04:38:32;;;;;;;46.53;16.27;;;10.30;99.90;;;;;;5028903;28;20026;-88
2024/03/05 04:40:57;;;;;;;44.40;16.33;;;10.30;99.90;;;;;;5029090;28;20249;-87
2024/03/05 04:43:23;;;;;;;50.33;16.33;;;10.30;99.90;;;;;;5025537;28;20034;-87
2024/03/05 04:45:48;;;;;;;47.40;16.10;;;10.30;99.90;;;;;;5025795;28;20508;-87
2024/03/05 04:48:14;;;;;;;41.00;15.45;;;10.30;99.90;;;;;;5025851;28;20506;-86
2024/03/05 04:50:40;;;;;;;39.83;15.82;;;10.30;99.90;;;;;;5028651;28;20013;-87
2024/03/05 04:53:05;;;;;;;42.65;16.85;;;10.30;99.90;;;;;;5024925;28;20463;-87
2024/03/05 04:55:31;;;;;;;47.60;16.15;;;10.30;99.90;;;;;;5028853;28;20026;-88
2024/03/05 04:57:56;;;;;;;38.97;15.50;;;10.30;99.90;;;;;;5027497;28;20538;-87
2024/03/05 05:00:23;;;;;;;49.28;16.13;;;10.30;99.90;;;;;;5027331;28;20385;-88
2024/03/05 05:02:52;;;;;;;43.97;15.27;;;10.30;99.90;;;;;;5017601;28;20188;-87
2024/03/05 05:05:19;;;;;;;53.03;17.23;;;10.30;99.90;;;;;;5017049;28;20112;-86
2024/03/05 05:07:46;;;;;;;48.05;16.10;;;10.30;99.90;;;;;;5023810;28;20026;-87
2024/03/05 05:10:12;;;;;;;43.70;15.77;;;10.30;99.90;;;;;;5030406;28;20024;-86
2024/03/05 05:12:39;;;;;;;42.63;15.98;;;10.30;99.90;;;;;;5033429;28;20033;-88
2024/03/05 05:15:08;;;;;;;45.55;17.45;;;10.30;99.90;;;;;;5032757;28;20024;-87
2024/03/05 05:17:34;;;;;;;44.50;14.95;;;10.30;99.90;;;;;;5031808;28;20026;-87
2024/03/05 05:20:00;;;;;;;45.75;17.08;;;10.30;99.90;;;;;;5024346;28;20096;-87
2024/03/05 05:22:25;;;;;;;42.85;15.75;;;10.30;99.90;;;;;;5030566;28;20484;-87
2024/03/05 05:24:51;;;;;;;49.40;16.75;;;10.30;99.90;;;;;;5032057;28;20023;-87
2024/03/05 05:27:17;;;;;;;52.25;16.80;;;10.30;99.90;;;;;;5031480;28;20079;-87
2024/03/05 05:29:43;;;;;;;45.15;15.90;;;10.30;99.90;;;;;;5029941;28;20018;-87
2024/03/05 05:32:08;;;;;;;47.90;16.95;;;10.30;99.90;;;;;;5030623;28;20032;-88
2024/03/05 05:34:35;;;;;;;41.97;15.93;;;10.30;99.90;;;;;;5030943;28;20109;-86
2024/03/05 05:37:01;;;;;;;45.78;15.80;;;10.30;99.90;;;;;;5029697;28;20025;-87
2024/03/05 05:39:27;;;;;;;50.25;16.55;;;10.30;99.90;;;;;;5025618;28;20033;-86
2024/03/05 05:41:54;;;;;;;51.47;17.20;;;10.30;99.90;;;;;;5032111;28;20026;-87
2024/03/05 05:44:20;;;;;;;41.20;15.70;;;10.30;99.90;;;;;;5028023;28;20640;-87
2024/03/05 05:46:45;;;;;;;42.63;16.85;;;10.30;99.90;;;;;;5031448;28;20055;-88
2024/03/05 05:49:14;;;;;;;51.13;15.88;;;10.30;99.90;;;;;;5029488;28;20026;-86
2024/03/05 05:51:40;;;;;;;41.65;15.70;;;10.30;99.90;;;;;;5022023;28;20017;-86
2024/03/05 05:54:10;;;;;;;50.38;16.23;;;10.30;99.90;;;;;;5029509;28;20030;-87
2024/03/05 05:56:36;;;;;;;51.25;16.38;;;10.30;99.90;;;;;;5026204;28;20014;-87
2024/03/05 05:59:05;;;;;;;49.97;17.90;;;10.30;99.90;;;;;;5027007;28;20026;-87
2024/03/05 06:01:33;;;;;;;43.65;17.73;;;10.30;99.90;;;;;;5030335;28;20029;-87
2024/03/05 06:03:59;;;;;;;49.90;17.15;;;10.30;99.90;;;;;;5025587;28;20079;-86
2024/03/05 06:06:25;;;;;;;44.47;16.27;;;10.30;99.90;;;;;;5030321;28;20022;-87
2024/03/05 06:08:51;;;;;;;43.65;17.30;;;10.30;99.90;;;;;;5031573;28;20040;-87
2024/03/05 06:11:17;;;;;;;42.55;17.75;;;10.30;99.90;;;;;;5030323;28;20021;-88
2024/03/05 06:13:43;;;;;;;47.78;17.20;;;10.30;99.90;;;;;;5029804;28;20040;-87
2024/03/05 06:16:09;;;;;;;46.08;16.95;;;10.30;99.90;;;;;;5029893;28;20653;-85
2024/03/05 06:18:36;;;;;;;48.70;17.85;;;10.30;99.90;;;;;;5026858;28;20022;-87
2024/03/05 06:21:05;;;;;;;49.00;17.33;;;10.30;99.90;;;;;;5030164;28;20112;-87
2024/03/05 06:23:31;;;;;;;47.03;18.05;;;10.30;99.90;;;;;;5030831;28;20025;-87
2024/03/05 06:25:56;;;;;;;55.28;18.52;;;10.30;99.90;;;;;;5029110;28;20052;-87
2024/03/05 06:28:22;;;;;;;51.42;19.05;;;10.30;99.90;;;;;;5023738;28;20096;-86
2024/03/05 06:30:51;;;;;;;56.53;18.05;;;10.30;99.90;;;;;;5026195;28;20026;-87
2024/03/05 06:33:20;;;;;;;55.85;20.02;;;10.30;99.90;;;;;;5031116;28;20522;-87
2024/03/05 06:35:48;;;;;;;62.53;21.33;;;10.30;99.90;;;;;;5025409;28;20067;-87
2024/03/05 06:38:13;;;;;;;56.08;20.55;;;10.30;99.90;;;;;;5026544;28;20032;-87
2024/03/05 06:40:39;;;;;;;64.72;19.95;;;10.30;99.90;;;;;;5028474;28;20033;-87
2024/03/05 06:43:15;;;;;;;59.47;20.58;;;10.30;99.90;;;;;;5027438;28;20492;-87
2024/03/05 06:45:42;;;;;;;50.17;19.30;;;10.30;99.90;;;;;;5029744;28;20125;-86
2024/03/05 06:48:09;;;;;;;56.20;18.92;;;10.30;99.90;;;;;;5026552;28;20025;-86
2024/03/05 06:50:38;;;;;;;55.55;20.38;;;10.30;99.90;;;;;;5026196;28;20041;-86
2024/03/05 06:58:34;;;;;;;60.42;20.60;;;10.20;99.90;;;;;;5028115;28;20044;-87
2024/03/05 07:01:06;;;;;;;56.08;20.27;;;10.20;99.90;;;;;;5023132;28;20033;-87
2024/03/05 07:03:35;;;;;;;53.75;20.30;;;10.20;99.90;;;;;;5026982;28;20171;-87
2024/03/05 07:06:06;;;;;;;57.08;19.83;;;10.20;99.90;;;;;;5029186;28;20104;-88
2024/03/05 07:08:39;;;;;;;66.03;21.42;;;10.20;99.90;;;;;;5025666;28;20018;-88
2024/03/05 07:11:12;;;;;;;57.58;20.52;;;10.20;99.90;;;;;;5027363;28;20021;-87
2024/03/05 07:13:40;;;;;;;62.33;20.40;;;10.20;99.90;;;;;;5026040;28;20099;-87
2024/03/05 07:16:13;;;;;;;62.30;20.67;;;10.20;99.90;;;;;;5030242;28;20026;-88
2024/03/05 07:18:39;;;;;;;62.92;21.13;;;10.20;99.90;;;;;;5029345;28;20053;-86
2024/03/05 07:21:07;;;;;;;60.58;21.80;;;10.20;99.90;;;;;;5027464;28;20030;-87
2024/03/05 07:23:33;;;;;;;58.15;20.85;;;10.20;99.90;;;;;;5029534;28;20017;-88
2024/03/05 07:25:58;;;;;;;70.38;22.85;;;10.30;99.90;;;;;;5027346;28;20052;-87
2024/03/05 07:28:27;;;;;;;67.60;22.85;;;10.20;99.90;;;;;;5024978;28;20079;-87
2024/03/05 07:30:53;;;;;;;61.50;19.85;;;10.20;99.90;;;;;;5025704;28;20021;-87
2024/03/05 07:33:22;;;;;;;59.30;20.17;;;10.20;99.90;;;;;;5028411;28;20034;-86
2024/03/05 07:35:48;;;;;;;58.72;21.67;;;10.30;99.90;;;;;;5025347;28;20079;-86
2024/03/05 07:38:14;;;;;;;63.60;20.80;;;10.30;99.90;;;;;;5027619;28;20034;-87
2024/03/05 07:40:41;;;;;;;61.83;21.42;;;10.30;99.90;;;;;;5027976;28;20028;-87
2024/03/05 07:43:08;;;;;;;60.10;21.20;;;10.30;99.90;;;;;;5024273;28;20035;-86
2024/03/05 07:45:34;;;;;;;57.35;21.45;;;10.30;99.90;;;;;;5030342;28;20048;-86
2024/03/05 07:48:00;;;;;;;58.80;20.73;;;10.30;99.90;;;;;;5023948;28;20095;-86
2024/03/05 07:50:27;;;;;;;65.88;20.33;;;10.30;99.90;;;;;;5029190;28;20480;-87
2024/03/05 07:52:57;;;;;;;57.30;19.98;;;10.30;99.90;;;;;;5028792;28;20022;-87
2024/03/05 07:55:23;;;;;;;58.22;20.02;;;10.30;99.90;;;;;;5028404;28;20022;-87
2024/03/05 07:57:52;;;;;;;58.97;21.02;;;10.30;99.90;;;;;;5020997;28;20049;-87
2024/03/05 08:00:20;;;;;;;48.55;18.08;;;10.30;99.90;;;;;;5028834;28;20495;-87
2024/03/05 08:02:47;;;;;;;53.58;20.83;;;10.30;99.90;;;;;;5029203;28;20021;-87
2024/03/05 08:05:21;;;;;;;55.25;19.33;;;10.30;99.90;;;;;;5025452;28;20071;-86
2024/03/05 08:07:48;;;;;;;58.08;20.48;;;10.30;99.90;;;;;;5025232;28;20022;-87
2024/03/05 08:10:16;;;;;;;54.13;19.27;;;10.30;99.90;;;;;;5026728;28;20547;-86
2024/03/05 08:12:43;;;;;;;51.40;19.52;;;10.30;99.90;;;;;;5027393;28;20049;-86
2024/03/05 08:15:13;;;;;;;52.08;19.17;;;10.30;99.90;;;;;;5028619;28;20079;-86
2024/03/05 08:17:40;;;;;;;47.50;18.70;;;10.30;99.90;;;;;;5024385;28;20025;-86
2024/03/05 08:20:07;;;;;;;53.75;20.05;;;10.30;99.90;;;;;;5027695;28;20559;-87
2024/03/05 08:22:34;;;;;;;54.78;18.30;;;10.30;99.90;;;;;;5022964;28;20071;-87
2024/03/05 08:25:09;;;;;;;47.90;17.60;;;10.30;99.90;;;;;;5022647;28;20036;-85
2024/03/05 08:27:38;;;;;;;54.05;18.45;;;10.30;99.90;;;;;;5028765;28;20017;-86
2024/03/05 08:30:08;;;;;;;46.58;17.85;;;10.30;99.90;;;;;;5026591;28;20049;-87
2024/03/05 08:32:37;;;;;;;60.35;18.90;;;10.30;99.90;;;;;;5025862;28;20018;-87
2024/03/05 08:35:05;;;;;;;48.22;18.33;;;10.30;99.90;;;;;;5023657;28;20026;-86
2024/03/05 08:37:31;;;;;;;46.05;17.75;;;10.30;99.90;;;;;;5024688;28;20057;-86
2024/03/05 08:39:56;;;;;;;59.70;18.17;;;10.30;99.90;;;;;;5025022;28;20069;-87
2024/03/05 08:42:22;;;;;;;53.03;18.15;;;10.30;99.90;;;;;;5028944;28;20116;-88
2024/03/05 08:44:47;;;;;;;52.38;17.42;;;10.30;99.90;;;;;;5031465;28;20033;-87
2024/03/05 08:47:13;;;;;;;48.75;18.00;;;10.30;99.90;;;;;;5031044;28;20524;-87
2024/03/05 08:49:39;;;;;;;54.47;18.60;;;10.30;99.90;;;;;;5021454;28;20479;-87
2024/03/05 08:52:05;;;;;;;53.28;17.98;;;10.30;99.90;;;;;;5023754;28;20034;-87
2024/03/05 08:54:31;;;;;;;49.38;17.13;;;10.30;99.90;;;;;;5030623;28;20640;-87
2024/03/05 08:56:58;;;;;;;52.28;17.65;;;10.30;99.90;;;;;;5024855;28;20029;-87
2024/03/05 08:59:27;;;;;;;47.75;18.33;;;10.30;99.90;;;;;;5031448;28;20037;-87
2024/03/05 09:01:53;;;;;;;53.50;17.88;;;10.30;99.90;;;;;;5028974;28;20444;-87
2024/03/05 09:04:23;;;;;;;48.13;18.15;;;10.30;99.90;;;;;;5030695;28;20029;-88
2024/03/05 09:06:49;;;;;;;;;;;10.30;99.90;;;;;;5031708;28;20802;-87
2024/03/05 09:09:16;;;;;;;48.92;15.65;;;10.30;99.90;;;;;;5026494;28;19906;-87
2024/03/05 09:11:42;;;;;;;51.58;18.67;;;10.40;99.90;;;;;;5032066;28;20436;-87
2024/03/05 09:14:08;;;;;;;53.40;18.00;;;10.40;99.90;;;;;;5027048;28;20060;-88
2024/03/05 09:16:37;;;;;;;49.90;19.15;;;10.30;99.90;;;;;;5032581;28;20021;-87
2024/03/05 09:19:03;;;;;;;51.53;18.92;;;10.40;99.90;;;;;;5025968;28;20037;-87
2024/03/05 09:21:28;;;;;;;49.47;17.55;;;10.40;99.90;;;;;;5032363;28;20558;-89
2024/03/05 09:23:54;;;;;;;54.08;18.27;;;10.40;99.90;;;;;;5026745;28;20025;-87
2024/03/05 09:26:19;;;;;;;43.70;16.77;;;10.40;99.90;;;;;;5025808;28;20048;-87
2024/03/05 09:28:45;;;;;;;46.90;18.10;;;10.40;99.90;;;;;;5024711;28;20025;-87
2024/03/05 09:31:16;;;;;;;45.88;15.80;;;10.40;99.90;;;;;;5029467;28;20067;-87
2024/03/05 09:33:43;;;;;;;49.35;17.73;;;10.40;99.90;;;;;;5028194;28;20041;-87
2024/03/05 09:36:09;;;;;;;49.92;16.35;;;10.40;99.90;;;;;;5031941;28;20029;-87
2024/03/05 09:38:35;;;;;;;48.60;17.00;;;10.40;99.90;;;;;;5031333;28;20057;-86
2024/03/05 09:41:02;;;;;;;49.85;18.52;;;10.50;99.90;;;;;;5025075;28;20053;-88
2024/03/05 09:43:28;;;;;;;47.38;17.63;;;10.50;99.90;;;;;;5028147;28;20033;-87
2024/03/05 09:46:04;;;;;;;51.47;17.95;;;10.50;99.90;;;;;;5024759;28;20060;-89
2024/03/05 09:48:33;;;;;;;46.33;17.00;;;10.50;99.90;;;;;;5026388;28;20030;-87
2024/03/05 09:50:59;;;;;;;49.53;17.73;;;10.60;99.90;;;;;;5041964;28;20073;-88
2024/03/05 09:56:45;;;;;;;48.65;18.35;;;10.50;99.90;;;;;;5847859;22;20053;-88
2024/03/05 09:59:16;;;;;;;52.42;17.58;;;10.50;99.90;;;;;;5008273;28;20029;-88
2024/03/05 10:01:45;;;;;;;41.88;16.50;;;10.50;99.90;;;;;;5015404;28;20028;-87
2024/03/05 10:04:15;;;;;;;46.38;16.02;;;10.50;99.90;;;;;;5022382;28;20018;-88
2024/03/05 10:06:47;;;;;;;;;;;10.50;99.90;;;;;;5029907;28;20024;-86
2024/03/05 10:09:17;;;;;;;54.90;16.88;;;10.50;99.90;;;;;;5044272;28;19915;-89
2024/03/05 10:11:44;;;;;;;50.08;17.75;;;10.50;99.90;;;;;;5021855;28;20023;-88
2024/03/05 10:14:10;;;;;;;48.92;16.85;;;10.50;99.90;;;;;;5027045;28;20413;-87
2024/03/05 10:16:36;;;;;;;45.65;16.90;;;10.50;99.90;;;;;;5034104;28;20021;-87
2024/03/05 10:19:16;;;;;;;49.40;16.85;;;10.50;99.90;;;;;;5008368;28;20049;-88
2024/03/05 10:21:42;;;;;;;44.63;15.00;;;10.50;99.90;;;;;;5016776;28;20141;-89
2024/03/05 10:24:09;;;;;;;38.92;16.17;;;10.50;99.90;;;;;;5024418;28;20351;-88
2024/03/05 10:26:36;;;;;;;38.25;14.88;;;10.50;99.90;;;;;;5009543;28;20024;-88
2024/03/05 10:29:13;;;;;;;37.60;15.23;;;10.50;99.90;;;;;;5015750;28;20026;-88
2024/03/05 10:31:43;;;;;;;43.42;16.42;;;10.50;99.90;;;;;;5022582;28;20062;-88
2024/03/05 10:34:09;;;;;;;42.63;15.20;;;10.50;99.90;;;;;;5021618;28;20451;-88
2024/03/05 10:36:38;;;;;;;39.58;14.25;;;10.50;99.90;;;;;;5011652;28;20025;-89
2024/03/05 10:39:05;;;;;;;39.03;14.00;;;10.50;99.90;;;;;;5019523;28;21113;-87
2024/03/05 10:41:39;;;;;;;41.58;14.13;;;10.50;99.90;;;;;;5043021;28;20017;-87
2024/03/05 10:44:09;;;;;;;35.80;14.63;;;10.50;99.90;;;;;;5037592;28;20510;-89
2024/03/05 10:46:36;;;;;;;38.83;12.35;;;10.50;99.90;;;;;;5002543;28;20050;-88
2024/03/05 10:49:05;;;;;;;37.47;13.98;;;10.50;99.90;;;;;;5039587;28;20107;-87
2024/03/05 10:51:37;;;;;;;34.60;12.60;;;10.50;99.90;;;;;;5014307;28;20069;-89
2024/03/05 10:54:04;;;;;;;31.95;12.85;;;10.50;99.90;;;;;;5035939;28;20025;-88
2024/03/05 10:56:30;;;;;;;34.35;12.65;;;10.50;99.90;;;;;;5020810;28;20103;-89
2024/03/05 11:01:41;;;;;;;32.03;11.88;;;10.40;99.90;;;;;;5034934;28;20082;-87
2024/03/05 11:04:13;;;;;;;32.85;11.85;;;10.50;99.90;;;;;;5041345;28;20017;-89
2024/03/05 11:06:42;;;;;;;30.85;12.15;;;10.40;99.90;;;;;;5014499;28;20032;-88
2024/03/05 11:09:11;;;;;;;34.83;13.13;;;10.40;99.90;;;;;;5004122;28;20022;-89
2024/03/05 11:11:43;;;;;;;31.52;11.63;;;10.40;99.90;;;;;;5019714;28;20493;-88
2024/03/05 11:14:10;;;;;;;34.03;12.20;;;10.40;99.90;;;;;;5023304;28;20025;-88
2024/03/05 11:16:36;;;;;;;35.58;12.43;;;10.40;99.90;;;;;;5008933;28;20472;-88
2024/03/05 11:19:08;;;;;;;30.85;12.93;;;10.40;99.90;;;;;;5026417;28;20029;-87
2024/03/05 11:21:35;;;;;;;33.05;12.98;;;10.40;99.90;;;;;;5030552;28;20021;-89
2024/03/05 11:24:02;;;;;;;42.90;12.90;;;10.40;99.90;;;;;;5008984;28;20029;-89
2024/03/05 11:26:32;;;;;;;29.50;12.68;;;10.40;99.90;;;;;;5030534;28;20050;-89
2024/03/05 11:29:23;;;;;;;35.03;13.17;;;10.30;99.90;;;;;;5022452;28;20112;-89
2024/03/05 11:31:52;;;;;;;30.63;13.75;;;10.30;99.90;;;;;;5002892;28;20060;-89
2024/03/05 11:34:18;;;;;;;28.63;12.55;;;10.30;99.90;;;;;;5009551;28;20025;-88
2024/03/05 11:36:44;;;;;;;30.02;13.00;;;10.30;99.90;;;;;;5017700;28;20014;-88
2024/03/05 11:39:20;;;;;;;35.78;12.98;;;10.30;99.90;;;;;;5012816;28;20479;-89
2024/03/05 11:41:47;;;;;;;31.80;12.55;;;10.30;99.90;;;;;;5039843;28;20095;-88
2024/03/05 11:44:31;;;;;;;34.22;14.07;;;10.30;99.90;;;;;;5003175;28;20390;-89
2024/03/05 11:46:57;;;;;;;27.85;12.43;;;10.30;99.90;;;;;;5000063;28;20033;-89
2024/03/05 11:49:22;;;;;;;27.15;12.07;;;10.30;99.90;;;;;;5015039;28;20108;-89
2024/03/05 11:51:49;;;;;;;31.00;12.93;;;10.30;99.90;;;;;;5027527;28;20101;-89
2024/03/05 11:54:16;;;;;;;28.48;11.25;;;10.30;99.90;;;;;;5027030;28;20042;-89
2024/03/05 11:56:45;;;;;;;26.10;10.93;;;10.30;99.90;;;;;;5027228;28;20023;-88
2024/03/05 11:59:12;;;;;;;26.00;11.45;;;10.30;99.90;;;;;;5038749;28;20049;-89
2024/03/05 12:01:41;;;;;;;27.42;10.93;;;10.30;99.90;;;;;;5048549;28;20028;-89
2024/03/05 12:04:07;;;;;;;25.10;10.07;;;10.30;99.90;;;;;;5021257;28;20028;-89
2024/03/05 12:06:39;;;;;;;19.25;8.82;;;10.20;99.90;;;;;;5035112;28;20027;-89
2024/03/05 12:09:21;;;;;;;16.75;8.55;;;10.20;99.90;;;;;;5022157;28;20025;-89
2024/03/05 12:12:05;;;;;;;13.57;6.43;;;10.20;99.90;;;;;;5023993;28;20021;-88
2024/03/05 12:14:34;;;;;;;16.98;6.88;;;10.20;99.90;;;;;;5006458;28;20414;-89
2024/03/05 12:17:03;;;;;;;14.05;7.07;;;10.20;99.90;;;;;;5014200;28;20508;-89
2024/03/05 12:19:40;;;;;;;14.13;7.18;;;10.30;99.90;;;;;;5030136;28;20123;-89
2024/03/05 12:22:07;;;;;;;11.45;6.30;;;10.30;99.90;;;;;;4999194;28;20017;-89
2024/03/05 12:24:32;;;;;;;15.35;6.55;;;10.30;99.90;;;;;;5005228;28;20013;-88
2024/03/05 12:26:58;;;;;;;11.85;6.03;;;10.30;99.90;;;;;;5014117;28;20029;-88
2024/03/05 12:29:28;;;;;;;12.82;5.50;;;10.30;99.90;;;;;;5013471;28;20072;-90
2024/03/05 12:31:56;;;;;;;11.93;6.40;;;10.30;99.90;;;;;;5031062;28;20155;-85
2024/03/05 12:34:21;;;;;;;10.70;5.88;;;10.30;99.90;;;;;;5006921;28;20024;-87
2024/03/05 12:36:48;;;;;;;11.45;5.55;;;10.30;99.90;;;;;;5014845;28;20021;-86
2024/03/05 12:39:17;;;;;;;15.00;6.53;;;10.30;99.90;;;;;;5007771;28;20033;-86